Disclaimer

Please do not use the information listed here in-flight or in-navigation, as they are not provided to us by the airports but are provided by volunteers, so they might be outdated.

Search


Regions


Airport information page

Radio informations:
Ground (GND) - 127.8 MHz

Airport informations:
Latitude: 32° 48' 34.00" N
Longitude: 035° 02' 35.00" E
Elevation: 28 feet - 9 meters
Operating hours: Remarks
Operating agency: Military-civil joint use airport
Timezone: UTC+2(+3DT) - Dates notified by NOTAM
Fuel: Jet A1, without icing nhibitor.

100/130 MIL Spec, low lead, aviation gasoline (BLUE)

Runway information:
16/34 - 4324 x 98 feet< - >1318 x 30 meters

Recent METARs:
LLHA 171250Z 33010KT 9999 FEW040 15/06 Q1019
LLHA 171350Z 30010KT 9999 BKN048 15/04 Q1019
LLHA 171350Z 30010KT 9999 BKN048 15/04 Q1019

Airport on the map: